Santa Luzia, Brazil
Current Conditions -  °F | °C
As of 6:00 PM on Sunday 21 Dec 2014 (Local Time) from SBSL Reporting Station
Scattered Clouds Scattered Clouds  
Wind Chill: 84°   Ceiling: Unl
Heat Index: 88°   Visibility: 6mi
Dew Point: 70°   Wind: 22mph
Humidity: 62%   Direction: 60°ENE
Pressure: 29.77"   Gusts: NA
Location:  3.96°S, 45.66°W
Report Text: SBSL 212100Z 06019KT 9999 SCT017 29/21 Q1008
Loading
Personal Weather Stations






























Interactive Weather Map New forecast layout! Learn more

10-Day Weather Forecast

Advertisements
Track Severe Weather on mobile